createdAt,value
2023-01-28T06:32:43.305Z,2.51
2023-01-28T06:35:11.310Z,2.56
2023-01-28T06:37:37.917Z,2.56
2023-01-28T06:40:04.817Z,2.56
2023-01-28T06:42:31.493Z,2.60
2023-01-28T06:44:58.048Z,2.70
2023-01-28T06:47:24.715Z,2.94
2023-01-28T06:49:51.288Z,2.74
2023-01-28T06:52:17.839Z,2.73
2023-01-28T06:54:44.457Z,2.95
2023-01-28T06:57:10.976Z,2.80
2023-01-28T06:59:37.574Z,2.60
2023-01-28T07:02:04.219Z,2.53
2023-01-28T07:04:31.792Z,2.53
2023-01-28T07:06:58.416Z,2.68
2023-01-28T07:09:24.964Z,2.84
2023-01-28T07:11:51.526Z,2.77
2023-01-28T07:14:18.155Z,2.80
2023-01-28T07:16:44.791Z,2.99
2023-01-28T07:19:11.554Z,3.02
2023-01-28T07:21:38.100Z,2.91
2023-01-28T07:24:05.463Z,2.87
2023-01-28T07:26:32.094Z,2.92
2023-01-28T07:28:58.672Z,2.77
2023-01-28T07:31:25.789Z,2.75
2023-01-28T07:33:52.408Z,2.58
2023-01-28T07:36:18.960Z,2.67
2023-01-28T07:38:45.603Z,2.98
2023-01-28T07:41:12.115Z,3.09
2023-01-28T07:43:38.766Z,3.13
2023-01-28T07:46:05.715Z,3.11
2023-01-28T07:48:32.455Z,2.99
2023-01-28T07:51:00.357Z,2.78
2023-01-28T07:53:27.385Z,2.61
2023-01-28T07:55:59.685Z,2.84
2023-01-28T07:58:26.228Z,2.84
2023-01-28T08:00:57.200Z,2.80
2023-01-28T08:03:23.749Z,2.83
2023-01-28T08:05:52.907Z,2.80
2023-01-28T08:08:19.724Z,3.02
2023-01-28T08:10:46.944Z,3.01
2023-01-28T08:13:15.445Z,2.88
2023-01-28T08:15:42.614Z,2.98
2023-01-28T08:18:13.267Z,3.11
2023-01-28T08:20:40.476Z,2.96
2023-01-28T08:23:14.943Z,3.01
2023-01-28T08:25:41.715Z,3.04
2023-01-28T08:28:09.151Z,3.15
2023-01-28T08:30:38.845Z,3.23
2023-01-28T08:33:09.844Z,3.32
2023-01-28T08:35:37.344Z,3.43
2023-01-28T08:38:05.347Z,3.39
2023-01-28T08:40:33.068Z,3.12
2023-01-28T08:42:59.717Z,3.15
2023-01-28T08:45:28.089Z,3.25
2023-01-28T08:48:02.307Z,3.11
2023-01-28T08:50:35.138Z,3.22
2023-01-28T08:53:04.217Z,3.36
2023-01-28T08:55:31.237Z,3.35
2023-01-28T08:57:58.753Z,3.59
2023-01-28T09:00:25.410Z,3.47
2023-01-28T09:02:53.600Z,3.26
2023-01-28T09:05:21.062Z,3.20
2023-01-28T09:07:49.074Z,3.33
2023-01-28T09:10:20.619Z,3.43
2023-01-28T09:12:47.783Z,2.91
2023-01-28T09:15:17.342Z,3.16
2023-01-28T09:17:44.092Z,3.23
2023-01-28T09:20:12.398Z,3.25
2023-01-28T09:22:39.321Z,3.22
2023-01-28T09:25:06.173Z,3.22
2023-01-28T09:27:32.723Z,3.39
2023-01-28T09:29:59.546Z,3.20
2023-01-28T09:32:26.107Z,3.23
2023-01-28T09:34:52.686Z,3.30
2023-01-28T09:37:20.592Z,3.32
2023-01-28T09:39:47.210Z,3.05
2023-01-28T09:42:29.099Z,3.11
2023-01-28T09:45:13.117Z,3.06
2023-01-28T09:47:58.632Z,3.15
2023-01-28T09:50:28.607Z,3.78
2023-01-28T09:53:00.474Z,5.38
2023-01-28T09:55:36.565Z,6.11
2023-01-28T09:58:07.615Z,6.89
2023-01-28T10:00:52.835Z,8.04
2023-01-28T10:03:22.651Z,8.36
2023-01-28T10:06:15.806Z,9.75
2023-01-28T10:09:18.924Z,9.67
2023-01-28T10:12:23.639Z,8.60
2023-01-28T10:15:05.664Z,8.51
2023-01-28T10:17:37.518Z,7.71
2023-01-28T10:20:33.577Z,6.95
2023-01-28T10:23:03.240Z,7.59
2023-01-28T10:25:32.309Z,8.89
2023-01-28T10:28:01.408Z,9.47
2023-01-28T10:30:31.956Z,9.33
2023-01-28T10:33:17.875Z,8.62
2023-01-28T10:35:44.467Z,8.75
2023-01-28T10:38:15.671Z,9.61
2023-01-28T10:43:54.197Z,10.09
2023-01-28T10:46:25.391Z,10.12
2023-01-28T10:49:02.307Z,11.16
2023-01-28T10:51:34.411Z,11.90
2023-01-28T10:54:01.002Z,10.98
2023-01-28T10:56:44.875Z,10.53
2023-01-28T10:59:22.429Z,9.89
2023-01-28T11:02:21.262Z,9.70
2023-01-28T11:04:47.869Z,9.54
2023-01-28T11:07:22.719Z,9.73
2023-01-28T11:09:51.608Z,9.29
2023-01-28T11:12:25.981Z,8.69
2023-01-28T11:14:53.556Z,8.79
2023-01-28T11:17:23.734Z,9.12
2023-01-28T11:19:52.933Z,10.76
2023-01-28T11:22:39.706Z,10.43
2023-01-28T11:25:34.484Z,10.68
2023-01-28T11:28:03.790Z,11.04
2023-01-28T11:30:40.599Z,10.84
2023-01-28T11:33:22.055Z,10.88
2023-01-28T11:36:04.570Z,12.44
2023-01-28T11:38:31.152Z,11.86
2023-01-28T11:40:58.809Z,11.40
2023-01-28T11:43:27.198Z,11.91
2023-01-28T11:46:20.840Z,11.16
2023-01-28T11:49:02.411Z,11.70
2023-01-28T11:51:54.638Z,12.03
2023-01-28T11:55:17.738Z,11.53
2023-01-28T11:58:03.195Z,11.79
2023-01-28T12:00:52.487Z,12.42
2023-01-28T12:03:41.081Z,12.14
2023-01-28T12:06:40.247Z,11.59
2023-01-28T12:09:20.155Z,13.20
2023-01-28T12:12:17.662Z,15.03
2023-01-28T12:14:47.078Z,13.34
2023-01-28T12:17:24.261Z,13.81
2023-01-28T12:20:10.863Z,13.72
2023-01-28T12:23:00.890Z,14.51
2023-01-28T12:25:42.738Z,14.51
2023-01-28T12:28:12.249Z,14.29
2023-01-28T12:31:05.142Z,13.61
2023-01-28T12:34:03.094Z,12.63
2023-01-28T12:36:58.965Z,11.19
2023-01-28T12:39:56.408Z,9.89
2023-01-28T12:42:45.015Z,9.08
2023-01-28T12:45:24.369Z,9.02
2023-01-28T12:48:14.578Z,8.57
2023-01-28T12:50:56.818Z,8.96
2023-01-28T12:53:29.389Z,9.16
2023-01-28T12:56:11.671Z,10.25
2023-01-28T12:59:11.589Z,9.68
2023-01-28T13:01:52.129Z,9.74
2023-01-28T13:04:27.012Z,9.57
2023-01-28T13:07:02.188Z,9.05
2023-01-28T13:09:30.313Z,9.27
2023-01-28T13:11:58.641Z,9.54
2023-01-28T13:14:41.100Z,12.08
2023-01-28T13:17:26.458Z,12.04
2023-01-28T13:19:53.103Z,12.97
2023-01-28T13:22:46.108Z,14.27
2023-01-28T13:25:25.205Z,12.69
2023-01-28T13:28:03.548Z,10.95
2023-01-28T13:30:50.081Z,11.74
2023-01-28T13:33:29.596Z,11.73
2023-01-28T13:35:57.071Z,12.08
2023-01-28T13:38:24.719Z,13.07
2023-01-28T13:41:00.913Z,12.17
2023-01-28T13:43:39.266Z,10.19
2023-01-28T13:46:07.742Z,9.43
2023-01-28T13:49:04.366Z,8.85
2023-01-28T13:51:37.548Z,8.78
2023-01-28T13:54:07.576Z,8.34
2023-01-28T13:56:58.226Z,8.43
2023-01-28T13:59:33.780Z,8.07
2023-01-28T14:02:06.147Z,8.17
2023-01-28T14:04:43.383Z,7.79
2023-01-28T14:07:32.258Z,7.69
2023-01-28T14:10:42.910Z,7.82
2023-01-28T14:13:44.382Z,7.35
2023-01-28T14:16:40.706Z,7.50
2023-01-28T14:19:13.530Z,7.38
2023-01-28T14:21:40.881Z,7.25
2023-01-28T14:24:16.883Z,7.37
2023-01-28T14:26:55.173Z,7.38
2023-01-28T14:29:39.087Z,6.58
2023-01-28T14:32:12.884Z,6.18
2023-01-28T14:34:40.815Z,6.29
2023-01-28T14:37:23.672Z,6.35
2023-01-28T14:39:58.236Z,6.34
2023-01-28T14:42:28.234Z,6.35
2023-01-28T14:45:24.005Z,6.50
2023-01-28T14:48:21.124Z,6.38
2023-01-28T14:51:19.817Z,6.37
2023-01-28T14:53:58.581Z,6.25
2023-01-28T14:57:12.256Z,6.10
2023-01-28T15:00:16.398Z,6.14
2023-01-28T15:02:44.889Z,5.98
2023-01-28T15:05:17.211Z,5.63
2023-01-28T15:07:45.601Z,5.46
2023-01-28T15:10:18.591Z,5.59
2023-01-28T15:12:51.069Z,5.41
2023-01-28T15:15:20.652Z,5.59
2023-01-28T15:17:48.255Z,5.49
2023-01-28T15:20:21.203Z,5.20
2023-01-28T15:22:48.065Z,5.08
2023-01-28T15:25:20.771Z,5.02
2023-01-28T15:27:48.109Z,5.02
2023-01-28T15:30:32.130Z,5.34
2023-01-28T15:33:06.838Z,5.42
2023-01-28T15:35:36.389Z,5.41
2023-01-28T15:38:04.076Z,5.39
2023-01-28T15:40:31.850Z,5.36
2023-01-28T15:42:58.957Z,5.20
2023-01-28T15:45:28.364Z,5.29
2023-01-28T15:48:04.762Z,5.34
2023-01-28T15:50:31.369Z,5.42
2023-01-28T15:52:58.284Z,5.41
2023-01-28T15:55:33.525Z,5.31
2023-01-28T15:58:12.327Z,5.27
2023-01-28T16:00:38.929Z,5.18
2023-01-28T16:03:09.793Z,5.32
2023-01-28T16:05:42.120Z,5.42
2023-01-28T16:08:17.817Z,5.49
2023-01-28T16:10:52.630Z,5.45
2023-01-28T16:13:25.121Z,5.32
2023-01-28T16:15:54.451Z,5.25
2023-01-28T16:18:39.066Z,5.45
2023-01-28T16:21:10.508Z,5.43
2023-01-28T16:23:39.500Z,5.29
2023-01-28T16:26:21.462Z,5.15
2023-01-28T16:28:48.126Z,5.17
2023-01-28T16:31:14.972Z,5.18
2023-01-28T16:33:41.719Z,5.11
2023-01-28T16:36:16.981Z,5.14
2023-01-28T16:38:43.569Z,5.20
2023-01-28T16:41:26.976Z,4.94
2023-01-28T16:43:53.892Z,4.92
2023-01-28T16:46:20.913Z,4.91
2023-01-28T16:48:47.528Z,4.74
2023-01-28T16:51:18.156Z,4.74
2023-01-28T16:53:46.858Z,4.64
2023-01-28T16:56:35.843Z,4.64
2023-01-28T16:59:04.888Z,4.57
2023-01-28T17:01:31.496Z,4.52
2023-01-28T17:03:58.649Z,4.66
2023-01-28T17:06:25.309Z,4.87
2023-01-28T17:08:51.909Z,4.85
2023-01-28T17:11:18.469Z,4.80
2023-01-28T17:13:45.093Z,4.88
2023-01-28T17:16:11.679Z,4.92
2023-01-28T17:18:38.221Z,4.94
2023-01-28T17:21:06.934Z,4.90
2023-01-28T17:23:33.629Z,4.77
2023-01-28T17:26:04.960Z,4.67
2023-01-28T17:28:31.766Z,4.63
2023-01-28T17:30:58.387Z,4.73
2023-01-28T17:33:25.053Z,4.85
2023-01-28T17:35:51.551Z,4.85
2023-01-28T17:38:18.325Z,4.71
2023-01-28T17:40:44.889Z,4.64
2023-01-28T17:43:11.418Z,4.71
2023-01-28T17:45:38.020Z,4.60
2023-01-28T17:48:05.000Z,4.64
2023-01-28T17:50:31.622Z,4.50
2023-01-28T17:52:58.454Z,4.49
2023-01-28T17:55:25.562Z,4.46
2023-01-28T17:57:52.350Z,4.53
2023-01-28T18:00:19.687Z,4.62
2023-01-28T18:02:49.816Z,4.64
2023-01-28T18:05:16.745Z,4.63
2023-01-28T18:07:44.380Z,4.56
2023-01-28T18:10:12.175Z,4.63
2023-01-28T18:12:38.702Z,4.54
2023-01-28T18:15:05.932Z,4.62
2023-01-28T18:17:32.546Z,4.53
2023-01-28T18:19:59.184Z,4.49
2023-01-28T18:22:25.840Z,4.49
2023-01-28T18:24:52.454Z,4.60
2023-01-28T18:27:20.807Z,4.52
2023-01-28T18:29:47.985Z,4.50
2023-01-28T18:32:14.677Z,4.41
2023-01-28T18:34:41.343Z,4.46
2023-01-28T18:37:10.094Z,4.53
2023-01-28T18:39:42.306Z,4.63
2023-01-28T18:42:10.029Z,4.62
2023-01-28T18:44:37.765Z,4.66
2023-01-28T18:47:04.331Z,4.69
2023-01-28T18:49:31.049Z,4.57
2023-01-28T18:51:57.955Z,4.49
2023-01-28T18:54:24.851Z,4.49
2023-01-28T18:56:51.507Z,4.48
2023-01-28T18:59:18.131Z,4.53
2023-01-28T19:01:44.856Z,4.54
2023-01-28T19:04:11.553Z,4.60
2023-01-28T19:06:54.987Z,4.48
2023-01-28T19:09:21.591Z,4.49
2023-01-28T19:11:48.424Z,4.36
2023-01-28T19:14:15.859Z,4.33
2023-01-28T19:16:43.550Z,4.39
2023-01-28T19:19:10.413Z,4.36
2023-01-28T19:21:37.802Z,4.42
2023-01-28T19:24:09.796Z,4.38
2023-01-28T19:26:37.623Z,4.41
2023-01-28T19:29:07.813Z,4.25
2023-01-28T19:31:34.421Z,4.35
2023-01-28T19:34:01.288Z,4.41
2023-01-28T19:36:31.323Z,4.35
2023-01-28T19:39:00.087Z,4.25
2023-01-28T19:41:28.472Z,4.26
2023-01-28T19:43:56.174Z,4.46
2023-01-28T19:46:22.805Z,4.52
2023-01-28T19:48:49.428Z,4.41
2023-01-28T19:51:16.362Z,4.52
2023-01-28T19:53:44.457Z,4.41
2023-01-28T19:56:15.825Z,4.38
2023-01-28T19:58:43.813Z,4.25
2023-01-28T20:01:13.710Z,4.19
2023-01-28T20:03:43.014Z,4.18
2023-01-28T20:06:14.838Z,4.11
2023-01-28T20:08:42.225Z,4.21
2023-01-28T20:11:15.619Z,4.19
2023-01-28T20:13:45.288Z,4.38
2023-01-28T20:16:19.279Z,4.38
2023-01-28T20:18:55.135Z,4.33
2023-01-28T20:21:22.047Z,4.32
2023-01-28T20:23:50.329Z,4.41
2023-01-28T20:26:18.173Z,4.29
2023-01-28T20:28:44.871Z,4.22
2023-01-28T20:31:11.727Z,4.38
2023-01-28T20:33:39.134Z,4.35
2023-01-28T20:36:11.696Z,4.38
2023-01-28T20:38:42.767Z,4.36
2023-01-28T20:41:11.683Z,4.31
2023-01-28T20:43:41.094Z,4.21
2023-01-28T20:46:15.967Z,4.16
2023-01-28T20:48:42.596Z,4.22
2023-01-28T20:51:15.036Z,4.22
2023-01-28T20:53:42.747Z,4.15
2023-01-28T20:56:11.193Z,3.99
2023-01-28T20:58:37.731Z,4.04
2023-01-28T21:01:05.265Z,4.05
2023-01-28T21:03:31.895Z,4.05
2023-01-28T21:05:58.641Z,4.06
2023-01-28T21:08:25.661Z,4.05
2023-01-28T21:10:52.317Z,3.84
2023-01-28T21:13:19.382Z,3.85
2023-01-28T21:15:55.066Z,3.90
2023-01-28T21:18:22.647Z,3.84
2023-01-28T21:20:49.885Z,4.02
2023-01-28T21:23:16.788Z,4.12
2023-01-28T21:25:46.591Z,3.90
2023-01-28T21:28:13.882Z,3.90
2023-01-28T21:30:40.467Z,3.83
2023-01-28T21:33:07.128Z,3.73
2023-01-28T21:35:42.260Z,3.77
2023-01-28T21:38:08.993Z,3.83
2023-01-28T21:40:35.752Z,3.81
2023-01-28T21:43:02.523Z,3.77
2023-01-28T21:45:29.594Z,3.91
2023-01-28T21:47:56.603Z,3.75
2023-01-28T21:50:23.922Z,3.75
2023-01-28T21:52:51.329Z,3.70
2023-01-28T21:55:18.494Z,3.87
2023-01-28T21:57:45.179Z,3.71
2023-01-28T22:00:13.115Z,3.67
2023-01-28T22:02:40.251Z,3.64
2023-01-28T22:05:07.574Z,3.69
2023-01-28T22:07:34.083Z,3.70
2023-01-28T22:10:00.726Z,3.71
2023-01-28T22:12:28.204Z,3.78
2023-01-28T22:14:54.884Z,3.73
2023-01-28T22:17:21.489Z,3.69
2023-01-28T22:19:48.316Z,3.70
2023-01-28T22:22:15.902Z,3.66
2023-01-28T22:24:42.636Z,3.66
2023-01-28T22:27:09.196Z,3.63
2023-01-28T22:29:35.721Z,3.67
2023-01-28T22:32:04.706Z,3.77
2023-01-28T22:34:31.615Z,3.80
2023-01-28T22:36:58.147Z,3.77
2023-01-28T22:39:24.801Z,3.88
2023-01-28T22:41:51.619Z,3.77
2023-01-28T22:44:19.935Z,3.88
2023-01-28T22:46:47.510Z,3.80
2023-01-28T22:49:15.190Z,3.80
2023-01-28T22:51:42.511Z,3.93
2023-01-28T22:54:12.013Z,3.77
2023-01-28T22:56:38.676Z,3.67
2023-01-28T22:59:05.568Z,3.77
2023-01-28T23:01:32.691Z,3.78
2023-01-28T23:03:59.432Z,3.84
2023-01-28T23:06:26.989Z,3.97
2023-01-28T23:08:54.463Z,3.88
2023-01-28T23:11:28.105Z,3.93
2023-01-28T23:14:16.129Z,3.77
2023-01-28T23:17:01.404Z,3.77
2023-01-28T23:19:46.958Z,3.75
2023-01-28T23:22:42.573Z,3.71
2023-01-28T23:25:09.679Z,3.78
2023-01-28T23:27:36.264Z,3.95
2023-01-28T23:30:03.969Z,3.99
2023-01-28T23:32:30.628Z,3.95
2023-01-28T23:34:57.251Z,3.88
2023-01-28T23:37:23.893Z,3.93
2023-01-28T23:39:50.429Z,3.93
2023-01-28T23:42:20.812Z,3.67
2023-01-28T23:44:48.630Z,3.67
2023-01-28T23:47:15.604Z,3.67
2023-01-28T23:49:42.153Z,3.75
2023-01-28T23:52:08.897Z,3.70
2023-01-28T23:54:35.908Z,3.66
2023-01-28T23:57:02.991Z,3.75
2023-01-28T23:59:29.556Z,3.93
